Time;durP1;ratioP1;P1;durP2;ratioP2;P2;SDS_P1;SDS_P2;PMS_P1;PMS_P2;Temp;Humidity;BMP_temperature;BMP_pressure;BME280_temperature;BME280_humidity;BME280_pressure;Samples;Min_cycle;Max_cycle;Signal;HPM_P1;HPM_P2
2023/07/13 00:01:20;;;;;;;8.97;3.30;;;;;;;;;;4982787;28;20039;-60
2023/07/13 00:03:48;;;;;;;12.13;3.20;;;;;;;;;;4989466;28;20542;-60
2023/07/13 00:06:14;;;;;;;11.33;2.83;;;;;;;;;;4989131;28;20141;-61
2023/07/13 00:08:41;;;;;;;10.87;3.30;;;;;;;;;;4989066;28;20197;-60
2023/07/13 00:11:07;;;;;;;9.87;2.90;;;;;;;;;;4989388;28;20066;-60
2023/07/13 00:13:33;;;;;;;12.27;2.80;;;;;;;;;;4990570;28;20141;-61
2023/07/13 00:16:00;;;;;;;15.10;4.07;;;;;;;;;;4992753;28;20551;-60
2023/07/13 00:18:29;;;;;;;14.47;3.47;;;;;;;;;;4993191;28;20054;-60
2023/07/13 00:20:55;;;;;;;10.13;3.77;;;;;;;;;;4992561;28;20071;-60
2023/07/13 00:23:23;;;;;;;14.33;3.50;;;;;;;;;;4992044;28;20050;-59
2023/07/13 00:25:50;;;;;;;13.63;2.90;;;;;;;;;;4992159;28;20497;-59
2023/07/13 00:28:16;;;;;;;12.50;3.00;;;;;;;;;;4993244;28;20049;-60
2023/07/13 00:30:43;;;;;;;9.83;2.50;;;;;;;;;;4993031;28;20046;-60
2023/07/13 00:33:09;;;;;;;13.47;3.60;;;;;;;;;;4992542;28;20420;-59
2023/07/13 00:35:35;;;;;;;12.43;2.97;;;;;;;;;;4992421;28;20057;-60
2023/07/13 00:38:01;;;;;;;14.63;2.80;;;;;;;;;;4992640;28;20061;-60
2023/07/13 00:40:27;;;;;;;15.17;2.60;;;;;;;;;;4992940;28;20590;-60
2023/07/13 00:42:54;;;;;;;10.87;2.73;;;;;;;;;;4992739;28;20042;-60
2023/07/13 00:45:20;;;;;;;9.07;2.43;;;;;;;;;;4992806;28;20078;-60
2023/07/13 00:47:46;;;;;;;11.07;2.50;;;;;;;;;;4992015;28;20045;-60
2023/07/13 00:50:14;;;;;;;12.43;2.90;;;;;;;;;;4992576;28;20101;-60
2023/07/13 00:52:43;;;;;;;14.87;3.37;;;;;;;;;;4992218;28;20046;-61
2023/07/13 00:55:09;;;;;;;10.93;3.00;;;;;;;;;;4991572;28;20054;-60
2023/07/13 00:57:36;;;;;;;11.33;2.53;;;;;;;;;;4992460;28;20424;-60
2023/07/13 01:00:06;;;;;;;11.23;3.17;;;;;;;;;;4991631;28;20038;-60
2023/07/13 01:02:32;;;;;;;9.90;2.40;;;;;;;;;;4990634;28;20333;-60
2023/07/13 01:04:58;;;;;;;14.07;3.83;;;;;;;;;;4991750;28;20050;-60
2023/07/13 01:07:25;;;;;;;19.63;3.20;;;;;;;;;;4992552;28;20049;-60
2023/07/13 01:09:51;;;;;;;13.67;3.00;;;;;;;;;;4992267;28;20046;-62
2023/07/13 01:12:17;;;;;;;13.20;3.20;;;;;;;;;;4992849;28;20042;-59
2023/07/13 01:14:43;;;;;;;15.97;3.63;;;;;;;;;;4990186;28;20050;-60
2023/07/13 01:17:11;;;;;;;10.77;3.10;;;;;;;;;;4981297;28;20559;-60
2023/07/13 01:19:39;;;;;;;15.87;2.97;;;;;;;;;;4991835;28;20046;-60
2023/07/13 01:22:08;;;;;;;13.30;3.70;;;;;;;;;;4992072;28;20586;-60
2023/07/13 01:24:34;;;;;;;12.73;3.13;;;;;;;;;;4991702;28;20061;-60
2023/07/13 01:27:00;;;;;;;11.50;3.43;;;;;;;;;;4991376;28;20082;-60
2023/07/13 01:29:26;;;;;;;12.90;3.47;;;;;;;;;;4992065;28;20070;-60
2023/07/13 01:31:52;;;;;;;16.17;3.53;;;;;;;;;;4991819;28;20077;-60
2023/07/13 01:34:18;;;;;;;10.00;3.20;;;;;;;;;;4990856;28;20449;-60
2023/07/13 01:36:44;;;;;;;13.67;3.97;;;;;;;;;;4991844;28;20092;-60
2023/07/13 01:39:11;;;;;;;16.63;3.60;;;;;;;;;;4991321;28;20046;-60
2023/07/13 01:41:37;;;;;;;15.00;3.30;;;;;;;;;;4990954;28;20088;-60
2023/07/13 01:44:03;;;;;;;10.30;3.10;;;;;;;;;;4991443;28;20042;-60
2023/07/13 01:46:29;;;;;;;14.80;4.23;;;;;;;;;;4991634;28;20591;-60
2023/07/13 01:48:54;;;;;;;14.40;4.43;;;;;;;;;;4991554;28;20046;-60
2023/07/13 01:51:21;;;;;;;14.80;3.33;;;;;;;;;;4990792;28;20069;-60
2023/07/13 01:53:47;;;;;;;17.07;3.93;;;;;;;;;;4990870;28;20080;-59
2023/07/13 01:56:13;;;;;;;14.43;4.30;;;;;;;;;;4991500;28;20467;-60
2023/07/13 01:58:39;;;;;;;13.97;3.80;;;;;;;;;;4991067;28;20090;-60
2023/07/13 02:01:05;;;;;;;13.57;3.27;;;;;;;;;;4991669;28;20108;-60
2023/07/13 02:03:31;;;;;;;21.23;3.73;;;;;;;;;;4990914;28;20046;-60
2023/07/13 02:05:57;;;;;;;12.60;3.43;;;;;;;;;;4990554;28;20046;-60
2023/07/13 02:08:23;;;;;;;13.70;4.23;;;;;;;;;;4991552;28;20557;-60
2023/07/13 02:10:49;;;;;;;13.67;2.93;;;;;;;;;;4990726;28;20089;-59
2023/07/13 02:13:15;;;;;;;17.63;4.27;;;;;;;;;;4991193;28;20054;-60
2023/07/13 02:15:41;;;;;;;18.17;3.63;;;;;;;;;;4990588;28;20093;-60
2023/07/13 02:18:07;;;;;;;8.17;3.23;;;;;;;;;;4990920;28;20065;-60
2023/07/13 02:20:33;;;;;;;10.00;3.03;;;;;;;;;;4991566;28;20050;-60
2023/07/13 02:22:59;;;;;;;15.00;3.93;;;;;;;;;;4990439;28;20221;-60
2023/07/13 02:25:26;;;;;;;14.07;4.13;;;;;;;;;;4990690;28;20050;-60
2023/07/13 02:27:52;;;;;;;17.97;4.07;;;;;;;;;;4990230;28;20150;-60
2023/07/13 02:30:18;;;;;;;23.47;4.50;;;;;;;;;;4977910;28;20049;-60
2023/07/13 02:32:44;;;;;;;16.77;4.73;;;;;;;;;;4990877;28;20591;-60
2023/07/13 02:35:10;;;;;;;15.67;4.03;;;;;;;;;;4990346;28;20042;-60
2023/07/13 02:37:37;;;;;;;14.17;3.40;;;;;;;;;;4989767;28;20420;-60
2023/07/13 02:40:08;;;;;;;15.60;3.90;;;;;;;;;;4985374;28;20448;-60
2023/07/13 02:42:34;;;;;;;17.07;4.17;;;;;;;;;;4983295;28;20046;-60
2023/07/13 02:45:00;;;;;;;14.80;4.00;;;;;;;;;;4990543;28;20504;-59
2023/07/13 02:47:26;;;;;;;14.33;4.23;;;;;;;;;;4990167;28;20057;-60
2023/07/13 02:49:52;;;;;;;20.63;4.40;;;;;;;;;;4990549;28;20136;-60
2023/07/13 02:52:18;;;;;;;19.03;4.83;;;;;;;;;;4987358;28;20464;-60
2023/07/13 02:54:44;;;;;;;13.93;4.30;;;;;;;;;;4990114;28;20058;-60
2023/07/13 02:57:10;;;;;;;20.00;3.80;;;;;;;;;;4990486;28;20476;-60
2023/07/13 02:59:37;;;;;;;18.07;4.57;;;;;;;;;;4990535;28;20520;-60
2023/07/13 03:02:03;;;;;;;14.63;4.97;;;;;;;;;;4988559;28;20567;-60
2023/07/13 03:04:29;;;;;;;22.57;4.27;;;;;;;;;;4990156;28;20151;-59
2023/07/13 03:06:57;;;;;;;14.87;4.50;;;;;;;;;;4989968;28;20038;-60
2023/07/13 03:09:24;;;;;;;20.30;4.87;;;;;;;;;;4990638;28;20100;-60
2023/07/13 03:11:50;;;;;;;19.13;5.03;;;;;;;;;;4989622;28;20053;-60
2023/07/13 03:14:16;;;;;;;20.63;4.77;;;;;;;;;;4990268;28;20042;-60
2023/07/13 03:16:42;;;;;;;18.33;5.13;;;;;;;;;;4989922;28;20039;-60
2023/07/13 03:19:08;;;;;;;18.67;5.47;;;;;;;;;;4989958;28;20043;-60
2023/07/13 03:21:35;;;;;;;14.70;4.07;;;;;;;;;;4990039;28;20419;-60
2023/07/13 03:24:01;;;;;;;16.93;5.80;;;;;;;;;;4993006;28;20188;-59
2023/07/13 03:26:27;;;;;;;17.63;4.50;;;;;;;;;;5009481;28;20499;-60
2023/07/13 03:28:53;;;;;;;15.57;4.70;;;;;;;;;;5009830;28;20049;-60
2023/07/13 03:31:20;;;;;;;16.63;4.00;;;;;;;;;;4992197;28;20501;-60
2023/07/13 03:33:46;;;;;;;12.80;4.20;;;;;;;;;;5008499;28;20108;-60
2023/07/13 03:36:18;;;;;;;17.57;4.27;;;;;;;;;;4989546;28;20045;-60
2023/07/13 03:38:46;;;;;;;16.52;4.75;;;;;;;;;;4987910;28;20480;-60
2023/07/13 03:41:12;;;;;;;17.37;4.47;;;;;;;;;;4989872;28;20047;-60
2023/07/13 03:43:38;;;;;;;19.93;4.53;;;;;;;;;;4989360;28;20050;-60
2023/07/13 03:46:04;;;;;;;22.53;4.63;;;;;;;;;;4988678;28;20196;-60
2023/07/13 03:48:30;;;;;;;13.33;4.23;;;;;;;;;;4991786;28;20148;-60
2023/07/13 03:50:56;;;;;;;19.50;4.43;;;;;;;;;;4995646;28;20042;-60
2023/07/13 03:53:22;;;;;;;12.73;4.43;;;;;;;;;;4995421;28;20186;-60
2023/07/13 03:55:48;;;;;;;12.20;4.00;;;;;;;;;;4995195;28;20054;-60
2023/07/13 03:58:26;;;;;;;14.27;4.00;;;;;;;;;;4995136;28;20488;-60
2023/07/13 04:00:52;;;;;;;14.20;4.37;;;;;;;;;;4995315;28;20423;-60
2023/07/13 04:03:18;;;;;;;23.30;4.47;;;;;;;;;;4995142;28;20489;-60
2023/07/13 04:05:44;;;;;;;16.77;4.63;;;;;;;;;;4995123;28;20451;-60
2023/07/13 04:08:10;;;;;;;17.23;5.83;;;;;;;;;;4995636;28;20042;-60
2023/07/13 04:10:36;;;;;;;13.77;4.40;;;;;;;;;;4994932;28;20049;-60
2023/07/13 04:13:02;;;;;;;15.23;4.30;;;;;;;;;;4995247;28;20054;-60
2023/07/13 04:15:30;;;;;;;13.17;3.50;;;;;;;;;;4994962;28;20538;-60
2023/07/13 04:17:56;;;;;;;16.60;3.93;;;;;;;;;;4995131;28;20199;-60
2023/07/13 04:20:24;;;;;;;15.97;4.20;;;;;;;;;;4995690;28;20069;-60
2023/07/13 04:22:50;;;;;;;16.87;3.87;;;;;;;;;;4995740;28;20788;-60
2023/07/13 04:25:16;;;;;;;14.27;4.03;;;;;;;;;;4995036;28;21019;-60
2023/07/13 04:27:42;;;;;;;14.47;3.73;;;;;;;;;;4994926;28;20050;-60
2023/07/13 04:30:08;;;;;;;12.40;3.87;;;;;;;;;;4994184;28;20408;-60
2023/07/13 04:32:34;;;;;;;11.03;3.83;;;;;;;;;;4994666;28;20042;-60
2023/07/13 04:35:00;;;;;;;18.90;4.47;;;;;;;;;;4995020;28;20046;-60
2023/07/13 04:37:27;;;;;;;14.60;4.40;;;;;;;;;;4994995;28;20567;-60
2023/07/13 04:39:53;;;;;;;16.43;4.67;;;;;;;;;;4995046;28;20040;-61
2023/07/13 04:42:19;;;;;;;14.77;4.33;;;;;;;;;;4995161;28;20397;-60
2023/07/13 04:44:51;;;;;;;11.57;3.60;;;;;;;;;;4995024;28;20648;-60
2023/07/13 04:47:18;;;;;;;19.57;4.63;;;;;;;;;;4994011;28;20070;-60
2023/07/13 04:49:44;;;;;;;21.70;3.87;;;;;;;;;;4993276;28;20627;-60
2023/07/13 04:52:10;;;;;;;13.87;4.10;;;;;;;;;;4994675;28;20465;-60
2023/07/13 04:54:37;;;;;;;15.87;5.20;;;;;;;;;;4994624;28;20165;-61
2023/07/13 04:57:06;;;;;;;10.87;3.90;;;;;;;;;;4994797;28;20065;-60
2023/07/13 04:59:32;;;;;;;11.50;4.67;;;;;;;;;;4993205;28;20059;-60
2023/07/13 05:01:58;;;;;;;13.00;3.87;;;;;;;;;;4989580;28;20068;-60
2023/07/13 05:04:24;;;;;;;19.63;5.60;;;;;;;;;;4991736;28;20500;-60
2023/07/13 05:06:50;;;;;;;15.27;4.33;;;;;;;;;;4991852;28;20519;-60
2023/07/13 05:09:16;;;;;;;19.40;4.40;;;;;;;;;;5003175;28;20042;-60
2023/07/13 05:11:42;;;;;;;13.70;4.47;;;;;;;;;;4995605;28;20039;-60
2023/07/13 05:14:09;;;;;;;14.90;5.17;;;;;;;;;;4990594;28;20049;-60
2023/07/13 05:16:35;;;;;;;24.17;5.97;;;;;;;;;;4974103;28;20046;-60
2023/07/13 05:19:01;;;;;;;19.70;4.20;;;;;;;;;;4991305;28;20050;-61
2023/07/13 05:21:27;;;;;;;17.20;4.20;;;;;;;;;;4991719;28;20057;-60
2023/07/13 05:23:53;;;;;;;17.73;4.10;;;;;;;;;;4990766;28;20100;-61
2023/07/13 05:26:20;;;;;;;17.77;4.83;;;;;;;;;;4990353;28;20046;-61
2023/07/13 05:28:46;;;;;;;16.57;6.03;;;;;;;;;;4990503;28;20488;-60
2023/07/13 05:31:13;;;;;;;20.07;5.40;;;;;;;;;;4991120;28;20105;-60
2023/07/13 05:33:39;;;;;;;13.13;4.53;;;;;;;;;;4991372;28;20069;-60
2023/07/13 05:36:06;;;;;;;14.50;5.47;;;;;;;;;;4991381;28;20592;-61
2023/07/13 05:38:32;;;;;;;16.80;5.33;;;;;;;;;;4990599;28;20050;-61
2023/07/13 05:40:59;;;;;;;17.40;5.33;;;;;;;;;;4990786;28;20054;-61
2023/07/13 05:43:25;;;;;;;11.63;4.70;;;;;;;;;;4990963;28;20467;-60
2023/07/13 05:45:53;;;;;;;23.47;4.27;;;;;;;;;;4990703;28;20218;-60
2023/07/13 05:48:19;;;;;;;17.03;4.47;;;;;;;;;;4990366;28;20554;-60
2023/07/13 05:50:45;;;;;;;13.80;3.97;;;;;;;;;;4990084;28;20050;-61
2023/07/13 05:53:12;;;;;;;17.80;5.23;;;;;;;;;;4990859;28;20412;-61
2023/07/13 05:55:41;;;;;;;21.80;5.50;;;;;;;;;;4990300;28;20516;-60
2023/07/13 05:58:07;;;;;;;12.63;4.40;;;;;;;;;;4990691;28;20141;-60
2023/07/13 06:00:33;;;;;;;18.47;5.30;;;;;;;;;;4989878;28;20137;-60
2023/07/13 06:02:59;;;;;;;15.80;4.27;;;;;;;;;;4990516;28;20097;-60
2023/07/13 06:05:25;;;;;;;16.10;4.63;;;;;;;;;;4988913;28;20496;-61
2023/07/13 06:07:51;;;;;;;11.53;4.37;;;;;;;;;;4990453;28;20113;-60
2023/07/13 06:10:17;;;;;;;12.23;3.97;;;;;;;;;;4990668;28;20077;-60
2023/07/13 06:12:43;;;;;;;15.43;4.47;;;;;;;;;;4990174;28;20038;-61
2023/07/13 06:15:09;;;;;;;16.97;3.80;;;;;;;;;;4995181;28;20058;-60
2023/07/13 06:17:35;;;;;;;14.27;3.53;;;;;;;;;;4990307;28;20042;-60
2023/07/13 06:20:01;;;;;;;15.20;3.87;;;;;;;;;;4987894;28;20050;-60
2023/07/13 06:22:27;;;;;;;15.20;3.47;;;;;;;;;;4989888;28;20500;-61
2023/07/13 06:24:53;;;;;;;12.07;3.53;;;;;;;;;;4989954;28;20046;-61
2023/07/13 06:27:19;;;;;;;12.40;3.93;;;;;;;;;;4989179;28;20038;-61
2023/07/13 06:29:45;;;;;;;11.50;3.37;;;;;;;;;;4988938;28;20084;-61
2023/07/13 06:32:11;;;;;;;12.97;3.43;;;;;;;;;;4990006;28;20070;-61
2023/07/13 06:34:37;;;;;;;13.13;3.80;;;;;;;;;;4990082;28;20618;-60
2023/07/13 06:37:03;;;;;;;13.83;3.33;;;;;;;;;;4988373;28;20104;-61
2023/07/13 06:39:29;;;;;;;15.40;3.10;;;;;;;;;;4988420;28;20159;-60
2023/07/13 06:41:55;;;;;;;11.10;3.33;;;;;;;;;;4989688;28;20587;-60
2023/07/13 06:44:21;;;;;;;12.60;3.20;;;;;;;;;;4989172;28;20050;-60
2023/07/13 06:46:47;;;;;;;13.17;4.23;;;;;;;;;;4989549;28;20046;-61
2023/07/13 06:49:13;;;;;;;12.53;3.83;;;;;;;;;;4989839;28;20046;-60
2023/07/13 06:51:39;;;;;;;13.07;3.23;;;;;;;;;;4989051;28;20046;-61
2023/07/13 06:54:05;;;;;;;15.57;3.80;;;;;;;;;;4989069;28;20050;-60
2023/07/13 06:56:31;;;;;;;12.03;3.30;;;;;;;;;;4989490;28;20141;-61
2023/07/13 06:58:57;;;;;;;23.83;4.63;;;;;;;;;;4988310;28;20136;-61
2023/07/13 07:01:23;;;;;;;11.23;3.47;;;;;;;;;;4989465;28;20046;-61
2023/07/13 07:03:49;;;;;;;9.80;3.20;;;;;;;;;;4988750;28;20104;-61
2023/07/13 07:06:19;;;;;;;12.27;3.87;;;;;;;;;;4989264;28;20058;-61
2023/07/13 07:08:46;;;;;;;11.50;3.97;;;;;;;;;;4987571;28;20511;-61
2023/07/13 07:11:17;;;;;;;12.73;3.53;;;;;;;;;;4988603;28;20046;-61
2023/07/13 07:13:43;;;;;;;11.67;3.27;;;;;;;;;;4989111;28;20154;-61
2023/07/13 07:16:09;;;;;;;18.53;3.67;;;;;;;;;;4989444;28;20078;-60
2023/07/13 07:18:35;;;;;;;11.30;3.70;;;;;;;;;;4988705;28;20487;-60
2023/07/13 07:21:02;;;;;;;12.00;3.13;;;;;;;;;;4988972;28;20038;-61
2023/07/13 07:23:28;;;;;;;13.17;3.80;;;;;;;;;;4988603;28;20038;-61
2023/07/13 07:25:54;;;;;;;11.60;3.13;;;;;;;;;;4989073;28;20046;-61
2023/07/13 07:28:20;;;;;;;15.17;3.97;;;;;;;;;;4987680;28;20379;-61
2023/07/13 07:30:47;;;;;;;15.37;3.37;;;;;;;;;;4988862;28;20579;-61
2023/07/13 07:33:13;;;;;;;16.60;3.70;;;;;;;;;;4989120;28;20050;-61
2023/07/13 07:35:39;;;;;;;16.27;4.23;;;;;;;;;;4989174;28;20073;-61
2023/07/13 07:38:05;;;;;;;10.57;3.77;;;;;;;;;;4988700;28;20042;-61
2023/07/13 07:40:31;;;;;;;16.90;3.50;;;;;;;;;;4988876;28;20134;-61
2023/07/13 07:42:57;;;;;;;12.50;4.10;;;;;;;;;;4988872;28;20176;-61
2023/07/13 07:45:23;;;;;;;12.60;4.00;;;;;;;;;;4988975;28;20050;-61
2023/07/13 07:47:49;;;;;;;14.50;4.00;;;;;;;;;;4988372;28;20052;-61
2023/07/13 07:50:16;;;;;;;15.13;4.30;;;;;;;;;;4988336;28;20484;-61
2023/07/13 07:52:44;;;;;;;11.77;3.67;;;;;;;;;;4989050;28;20085;-61
2023/07/13 07:55:10;;;;;;;12.60;5.13;;;;;;;;;;4988522;28;20089;-60
2023/07/13 07:57:36;;;;;;;11.53;4.43;;;;;;;;;;4988953;28;20058;-61
2023/07/13 08:00:01;;;;;;;12.50;3.50;;;;;;;;;;4988775;28;20046;-61
2023/07/13 08:02:27;;;;;;;14.63;4.63;;;;;;;;;;5007793;28;20042;-61
2023/07/13 08:04:53;;;;;;;15.53;4.57;;;;;;;;;;5008286;28;20109;-60
2023/07/13 08:07:19;;;;;;;10.77;3.83;;;;;;;;;;5004187;28;20523;-61
2023/07/13 08:09:47;;;;;;;9.87;3.50;;;;;;;;;;4989528;28;20038;-60
2023/07/13 08:12:13;;;;;;;13.17;3.60;;;;;;;;;;4988074;28;20082;-61
2023/07/13 08:14:38;;;;;;;9.77;3.67;;;;;;;;;;4995287;28;20046;-61
2023/07/13 08:17:05;;;;;;;16.20;3.93;;;;;;;;;;5008057;28;20061;-61
2023/07/13 08:19:31;;;;;;;14.93;4.03;;;;;;;;;;5008289;28;20540;-61
2023/07/13 08:21:57;;;;;;;12.87;4.10;;;;;;;;;;4988350;28;20125;-60
2023/07/13 08:24:24;;;;;;;13.10;4.23;;;;;;;;;;4988350;28;20042;-61
2023/07/13 08:26:51;;;;;;;15.53;4.77;;;;;;;;;;4976428;28;20058;-61
2023/07/13 08:29:17;;;;;;;10.67;3.80;;;;;;;;;;4984759;28;20057;-60
2023/07/13 08:31:43;;;;;;;8.50;3.73;;;;;;;;;;4971318;28;20042;-61
2023/07/13 08:34:09;;;;;;;15.07;4.73;;;;;;;;;;4968632;28;20053;-62
2023/07/13 08:36:35;;;;;;;13.00;4.43;;;;;;;;;;4986970;28;20527;-60
2023/07/13 08:39:00;;;;;;;10.27;3.73;;;;;;;;;;4992432;28;20073;-61
2023/07/13 08:41:27;;;;;;;12.87;3.93;;;;;;;;;;4992176;28;20092;-61
2023/07/13 08:43:57;;;;;;;13.67;4.47;;;;;;;;;;4991547;28;20473;-61
2023/07/13 08:46:30;;;;;;;16.47;4.77;;;;;;;;;;4991892;28;20046;-61
2023/07/13 08:48:58;;;;;;;14.47;4.70;;;;;;;;;;4990797;28;20058;-61
2023/07/13 08:51:23;;;;;;;14.27;5.03;;;;;;;;;;4991347;28;20097;-61
2023/07/13 08:53:51;;;;;;;48.50;8.20;;;;;;;;;;4990879;28;20047;-60
2023/07/13 08:56:18;;;;;;;60.00;9.27;;;;;;;;;;4991652;28;20038;-63
2023/07/13 08:58:45;;;;;;;119.50;11.07;;;;;;;;;;4991618;28;20057;-63
2023/07/13 09:01:33;;;;;;;105.87;8.17;;;;;;;;;;4991984;28;20046;-63
2023/07/13 09:04:11;;;;;;;4.83;1.40;;;;;;;;;;4991082;28;20046;-63
2023/07/13 09:06:43;;;;;;;12.77;4.17;;;;;;;;;;4991806;28;20213;-62
2023/07/13 09:09:35;;;;;;;48.23;5.73;;;;;;;;;;4991331;28;20587;-62
2023/07/13 09:12:07;;;;;;;19.47;4.20;;;;;;;;;;4987647;28;20158;-62
2023/07/13 09:14:36;;;;;;;12.73;2.70;;;;;;;;;;4991099;28;20133;-62
2023/07/13 09:17:04;;;;;;;13.90;4.50;;;;;;;;;;4991111;28;20046;-62
2023/07/13 09:19:32;;;;;;;25.63;6.13;;;;;;;;;;4991333;28;20043;-62
2023/07/13 09:22:00;;;;;;;27.27;5.87;;;;;;;;;;4991933;28;20580;-62
2023/07/13 09:24:25;;;;;;;9.13;3.53;;;;;;;;;;4991517;28;20157;-63
2023/07/13 09:26:52;;;;;;;9.57;3.97;;;;;;;;;;4991103;28;20511;-62
2023/07/13 09:29:26;;;;;;;6.90;4.70;;;;;;;;;;4991325;28;20050;-62
2023/07/13 09:31:54;;;;;;;7.73;4.97;;;;;;;;;;4990817;28;20049;-62
2023/07/13 09:34:20;;;;;;;10.47;6.30;;;;;;;;;;4990985;28;20042;-62
2023/07/13 09:36:46;;;;;;;9.60;5.60;;;;;;;;;;4977579;28;20144;-62
2023/07/13 09:39:15;;;;;;;8.50;4.90;;;;;;;;;;4987101;28;20493;-62
2023/07/13 09:41:59;;;;;;;7.10;4.00;;;;;;;;;;4989928;28;20436;-63
2023/07/13 09:44:30;;;;;;;10.33;6.80;;;;;;;;;;4990095;28;20101;-63
2023/07/13 09:46:56;;;;;;;11.60;5.87;;;;;;;;;;4989442;28;20090;-63
2023/07/13 09:49:26;;;;;;;11.90;7.13;;;;;;;;;;4990139;28;20170;-62
2023/07/13 09:52:00;;;;;;;11.60;7.37;;;;;;;;;;4990820;28;20050;-62
2023/07/13 09:54:27;;;;;;;8.63;5.90;;;;;;;;;;4990607;28;20073;-62
2023/07/13 09:56:56;;;;;;;12.50;7.30;;;;;;;;;;4990554;28;20038;-62
2023/07/13 09:59:23;;;;;;;11.93;6.77;;;;;;;;;;4990798;28;20042;-63
2023/07/13 10:01:50;;;;;;;10.63;7.27;;;;;;;;;;4990470;28;20039;-63
2023/07/13 10:04:20;;;;;;;11.33;5.77;;;;;;;;;;4989142;28;20449;-63
2023/07/13 10:06:46;;;;;;;12.93;7.77;;;;;;;;;;4981583;28;20046;-63
2023/07/13 10:09:16;;;;;;;14.03;8.53;;;;;;;;;;4989060;28;20140;-63
2023/07/13 10:11:44;;;;;;;11.07;6.03;;;;;;;;;;4988638;28;20081;-63
2023/07/13 10:14:13;;;;;;;17.00;8.87;;;;;;;;;;4980423;28;20053;-63
2023/07/13 10:16:40;;;;;;;15.00;11.10;;;;;;;;;;5002550;28;20042;-64
2023/07/13 10:19:11;;;;;;;10.07;6.00;;;;;;;;;;4990530;28;20088;-63
2023/07/13 10:21:42;;;;;;;10.30;7.43;;;;;;;;;;4990701;28;20035;-64
2023/07/13 10:24:15;;;;;;;8.37;5.43;;;;;;;;;;4990086;28;20050;-63
2023/07/13 10:26:41;;;;;;;;;;;;;;;;;;4990925;28;20054;-64
2023/07/13 10:29:11;;;;;;;9.23;5.53;;;;;;;;;;4987124;28;20273;-63
2023/07/13 10:31:38;;;;;;;10.37;6.80;;;;;;;;;;4987116;28;20531;-63
2023/07/13 10:34:05;;;;;;;11.37;6.53;;;;;;;;;;4985943;28;20054;-62
2023/07/13 10:36:38;;;;;;;9.57;5.87;;;;;;;;;;4987909;28;20062;-62
2023/07/13 10:39:06;;;;;;;8.93;5.67;;;;;;;;;;4989482;28;20076;-61
2023/07/13 10:41:34;;;;;;;13.73;7.30;;;;;;;;;;4989751;28;20121;-62
2023/07/13 10:44:01;;;;;;;9.23;7.00;;;;;;;;;;4990045;28;20042;-62
2023/07/13 10:46:28;;;;;;;11.77;7.97;;;;;;;;;;4989472;28;20042;-61
2023/07/13 10:48:56;;;;;;;12.20;8.37;;;;;;;;;;4988852;28;20070;-60
2023/07/13 10:51:23;;;;;;;14.17;9.90;;;;;;;;;;4989666;28;20042;-61
2023/07/13 10:54:09;;;;;;;15.77;8.60;;;;;;;;;;4989582;28;20050;-60
2023/07/13 10:56:35;;;;;;;31.23;13.67;;;;;;;;;;4989281;28;20046;-63
2023/07/13 10:59:03;;;;;;;18.43;11.23;;;;;;;;;;4988021;28;20050;-61
2023/07/13 11:01:40;;;;;;;11.93;7.00;;;;;;;;;;4987712;28;20101;-61
2023/07/13 11:04:09;;;;;;;10.37;5.53;;;;;;;;;;4989052;28;20082;-61
2023/07/13 11:06:41;;;;;;;8.67;5.43;;;;;;;;;;4989608;28;20049;-62
2023/07/13 11:09:19;;;;;;;15.10;10.57;;;;;;;;;;4989294;28;20130;-62
2023/07/13 11:11:45;;;;;;;8.80;4.80;;;;;;;;;;4989423;28;20469;-63
2023/07/13 11:14:20;;;;;;;4.60;3.47;;;;;;;;;;4987501;28;20065;-63
2023/07/13 11:16:47;;;;;;;6.43;3.33;;;;;;;;;;4988103;28;20401;-63
2023/07/13 11:19:13;;;;;;;13.63;4.17;;;;;;;;;;4988813;28;20544;-63
2023/07/13 11:21:58;;;;;;;7.93;4.60;;;;;;;;;;4989303;28;20374;-62
2023/07/13 11:24:29;;;;;;;11.93;4.97;;;;;;;;;;4988257;28;20571;-61
2023/07/13 11:26:56;;;;;;;6.60;5.10;;;;;;;;;;4985850;28;20045;-62
2023/07/13 11:29:38;;;;;;;7.33;5.53;;;;;;;;;;4987924;28;20145;-62
2023/07/13 11:32:22;;;;;;;8.30;3.90;;;;;;;;;;4987575;28;20532;-63
2023/07/13 11:34:48;;;;;;;9.27;4.20;;;;;;;;;;4988551;28;20053;-63
2023/07/13 11:37:16;;;;;;;12.03;4.93;;;;;;;;;;4989153;28;20054;-63
2023/07/13 11:39:44;;;;;;;6.03;4.50;;;;;;;;;;4988859;28;20585;-63
2023/07/13 11:42:12;;;;;;;9.77;4.57;;;;;;;;;;4989292;28;20046;-64
2023/07/13 11:44:42;;;;;;;8.63;3.70;;;;;;;;;;4988348;28;20161;-63
2023/07/13 11:47:10;;;;;;;8.40;4.17;;;;;;;;;;4987575;28;20069;-62
2023/07/13 11:49:42;;;;;;;8.30;3.80;;;;;;;;;;4988391;28;20571;-62
2023/07/13 11:52:12;;;;;;;7.97;3.58;;;;;;;;;;4981522;28;20152;-62
2023/07/13 11:54:55;;;;;;;8.20;4.57;;;;;;;;;;4969400;28;20055;-61
2023/07/13 11:57:31;;;;;;;10.48;4.47;;;;;;;;;;4969228;28;20165;-60
2023/07/13 11:59:59;;;;;;;6.30;3.80;;;;;;;;;;4969685;28;20077;-60
2023/07/13 12:02:33;;;;;;;7.43;3.33;;;;;;;;;;4982388;28;20088;-60
2023/07/13 12:05:00;;;;;;;9.33;3.67;;;;;;;;;;4987372;28;20400;-60
2023/07/13 12:07:29;;;;;;;9.07;3.80;;;;;;;;;;4989017;28;20125;-59
2023/07/13 12:10:00;;;;;;;6.70;3.03;;;;;;;;;;4990579;28;20038;-60
2023/07/13 12:12:30;;;;;;;4.93;2.67;;;;;;;;;;4992847;28;20093;-59
2023/07/13 12:14:56;;;;;;;5.07;2.67;;;;;;;;;;4991891;28;20054;-59
2023/07/13 12:17:23;;;;;;;9.10;2.43;;;;;;;;;;4992841;28;20046;-59
2023/07/13 12:19:49;;;;;;;6.60;1.90;;;;;;;;;;4991843;28;20046;-59
2023/07/13 12:22:17;;;;;;;5.07;2.10;;;;;;;;;;4992551;28;20055;-59
2023/07/13 12:24:44;;;;;;;7.00;2.03;;;;;;;;;;4991746;28;20462;-59
2023/07/13 12:27:23;;;;;;;6.00;1.80;;;;;;;;;;4992229;28;20119;-59
2023/07/13 12:29:56;;;;;;;7.53;2.47;;;;;;;;;;4991568;28;20050;-59
2023/07/13 12:32:22;;;;;;;5.30;1.83;;;;;;;;;;4992231;28;20050;-59
2023/07/13 12:35:18;;;;;;;7.03;1.88;;;;;;;;;;4991859;28;20133;-60
2023/07/13 12:37:46;;;;;;;6.68;1.70;;;;;;;;;;4976320;28;20058;-59
2023/07/13 12:40:19;;;;;;;7.35;1.95;;;;;;;;;;4992367;28;20129;-59
2023/07/13 12:42:48;;;;;;;3.65;1.30;;;;;;;;;;4992264;28;20499;-60
2023/07/13 12:45:22;;;;;;;4.13;2.10;;;;;;;;;;4992226;28;20050;-59
2023/07/13 12:47:49;;;;;;;3.38;1.50;;;;;;;;;;4991310;28;20423;-59
2023/07/13 12:50:23;;;;;;;6.85;1.90;;;;;;;;;;4992237;28;20038;-59
2023/07/13 12:53:00;;;;;;;4.50;1.60;;;;;;;;;;4991068;28;20038;-59
2023/07/13 12:55:26;;;;;;;5.38;1.70;;;;;;;;;;4991356;28;20104;-59
2023/07/13 12:57:53;;;;;;;4.43;1.52;;;;;;;;;;4991109;28;20072;-59
2023/07/13 13:00:32;;;;;;;4.60;1.70;;;;;;;;;;4991741;28;20121;-59
2023/07/13 13:03:03;;;;;;;6.65;2.03;;;;;;;;;;4991201;28;20054;-60
2023/07/13 13:05:30;;;;;;;6.32;1.88;;;;;;;;;;4972557;28;20050;-59
2023/07/13 13:07:56;;;;;;;5.28;1.60;;;;;;;;;;4971895;28;20050;-59
2023/07/13 13:10:22;;;;;;;6.00;1.60;;;;;;;;;;4972255;28;20082;-59
2023/07/13 13:12:48;;;;;;;5.43;1.38;;;;;;;;;;4972185;28;20049;-59
2023/07/13 13:15:14;;;;;;;9.20;2.05;;;;;;;;;;4980980;28;20050;-59
2023/07/13 13:17:40;;;;;;;9.38;2.08;;;;;;;;;;4990171;28;20049;-59
2023/07/13 13:20:19;;;;;;;6.55;1.70;;;;;;;;;;4990599;28;20046;-59
2023/07/13 13:22:45;;;;;;;5.10;1.63;;;;;;;;;;4988779;28;20401;-59
2023/07/13 13:25:12;;;;;;;5.15;2.03;;;;;;;;;;4990651;28;20141;-59
2023/07/13 13:27:39;;;;;;;3.60;1.33;;;;;;;;;;4990085;28;20045;-60
2023/07/13 13:30:12;;;;;;;3.45;1.38;;;;;;;;;;4990234;28;20045;-60
2023/07/13 13:32:38;;;;;;;;;;;;;;;;;;4972769;28;20057;-59
2023/07/13 13:35:04;;;;;;;6.47;1.50;;;;;;;;;;4972003;28;19922;-60
2023/07/13 13:37:30;;;;;;;2.30;1.08;;;;;;;;;;4971846;28;20568;-60
2023/07/13 13:39:56;;;;;;;4.13;1.27;;;;;;;;;;4980776;28;20042;-59
2023/07/13 13:42:24;;;;;;;4.40;1.88;;;;;;;;;;4990413;28;20133;-60
2023/07/13 13:44:50;;;;;;;4.82;1.45;;;;;;;;;;4990358;28;20050;-59
2023/07/13 13:47:32;;;;;;;5.50;1.55;;;;;;;;;;4990518;28;20404;-60
2023/07/13 13:50:00;;;;;;;3.65;1.33;;;;;;;;;;4988000;28;20054;-59
2023/07/13 13:52:26;;;;;;;6.28;2.13;;;;;;;;;;4989756;28;20151;-59
2023/07/13 13:54:56;;;;;;;5.20;1.60;;;;;;;;;;4988902;28;20531;-60
2023/07/13 13:57:25;;;;;;;5.32;1.60;;;;;;;;;;4990463;28;20058;-60
2023/07/13 13:59:52;;;;;;;5.38;1.45;;;;;;;;;;4987925;28;20066;-60
2023/07/13 14:02:29;;;;;;;5.15;1.88;;;;;;;;;;4995648;28;20464;-60
2023/07/13 14:04:57;;;;;;;6.65;1.30;;;;;;;;;;4981268;28;20427;-60
2023/07/13 14:07:23;;;;;;;3.63;0.93;;;;;;;;;;4976444;28;20043;-60
2023/07/13 14:09:49;;;;;;;3.97;1.25;;;;;;;;;;4971388;28;20442;-60
2023/07/13 14:12:15;;;;;;;5.43;1.70;;;;;;;;;;4987552;28;20409;-60
2023/07/13 14:14:41;;;;;;;5.60;1.42;;;;;;;;;;4981963;28;20137;-60
2023/07/13 14:17:21;;;;;;;3.13;1.40;;;;;;;;;;4976910;28;20190;-60
2023/07/13 14:19:50;;;;;;;4.15;1.40;;;;;;;;;;4994627;28;20049;-60
2023/07/13 14:22:16;;;;;;;4.82;1.67;;;;;;;;;;4991569;28;20122;-60
2023/07/13 14:24:42;;;;;;;4.53;1.45;;;;;;;;;;4990107;28;20224;-60
2023/07/13 14:27:09;;;;;;;3.97;1.50;;;;;;;;;;4989446;28;20432;-60
2023/07/13 14:29:36;;;;;;;3.97;1.27;;;;;;;;;;4976751;28;20058;-60
2023/07/13 14:32:02;;;;;;;3.78;1.60;;;;;;;;;;4989678;28;20054;-60
2023/07/13 14:34:28;;;;;;;5.25;1.90;;;;;;;;;;4989748;28;20369;-60
2023/07/13 14:36:54;;;;;;;4.97;1.65;;;;;;;;;;4989739;28;21049;-60